Time;durP1;ratioP1;P1;durP2;ratioP2;P2;SDS_P1;SDS_P2;PMS_P1;PMS_P2;Temp;Humidity;BMP_temperature;BMP_pressure;BME280_temperature;BME280_humidity;BME280_pressure;Samples;Min_cycle;Max_cycle;Signal;HPM_P1;HPM_P2
2021/10/14 00:01:55;;;;;;;9.20;5.35;;;10.20;98.20;;;;;;5022314;28;20098;-58
2021/10/14 00:04:22;;;;;;;7.97;5.43;;;10.20;98.10;;;;;;5022871;28;20056;-58
2021/10/14 00:06:49;;;;;;;8.75;5.95;;;10.20;98.20;;;;;;5021998;28;20597;-58
2021/10/14 00:09:16;;;;;;;8.93;6.53;;;10.20;98.10;;;;;;5023344;28;20088;-58
2021/10/14 00:11:42;;;;;;;9.85;6.70;;;10.30;98.20;;;;;;5020629;28;20140;-58
2021/10/14 00:14:09;;;;;;;8.75;6.60;;;10.30;98.10;;;;;;5022333;28;20077;-59
2021/10/14 00:16:36;;;;;;;10.05;6.53;;;10.30;98.20;;;;;;5021993;28;20124;-58
2021/10/14 00:19:03;;;;;;;8.75;6.70;;;10.40;98.20;;;;;;5037755;28;20512;-59
2021/10/14 00:21:29;;;;;;;9.07;6.85;;;10.40;98.40;;;;;;5022644;28;20092;-58
2021/10/14 00:23:56;;;;;;;9.10;6.18;;;10.40;98.30;;;;;;5022661;28;20302;-58
2021/10/14 00:26:23;;;;;;;7.55;5.15;;;10.40;98.40;;;;;;5021653;28;20407;-59
2021/10/14 00:28:50;;;;;;;13.45;6.85;;;10.40;98.20;;;;;;5022004;28;20544;-58
2021/10/14 00:31:16;;;;;;;9.32;5.85;;;10.50;98.50;;;;;;5022755;28;20080;-58
2021/10/14 00:33:43;;;;;;;8.90;6.25;;;10.50;98.20;;;;;;5021523;28;20552;-58
2021/10/14 00:36:10;;;;;;;7.88;5.53;;;10.40;98.20;;;;;;5022046;28;20084;-58
2021/10/14 00:38:37;;;;;;;8.50;6.55;;;10.40;98.20;;;;;;5022588;28;20574;-58
2021/10/14 00:41:03;;;;;;;9.55;7.07;;;10.40;98.20;;;;;;5022224;28;20073;-59
2021/10/14 00:43:30;;;;;;;9.23;6.72;;;10.40;98.20;;;;;;5021928;28;20177;-59
2021/10/14 00:45:57;;;;;;;7.40;6.15;;;10.40;98.20;;;;;;5022985;28;21094;-58
2021/10/14 00:48:24;;;;;;;9.63;6.35;;;10.40;98.40;;;;;;5036867;28;20128;-59
2021/10/14 00:50:51;;;;;;;9.70;6.38;;;10.40;98.30;;;;;;5021844;28;20315;-57
2021/10/14 00:53:17;;;;;;;9.63;6.82;;;10.50;98.30;;;;;;5021939;28;20175;-59
2021/10/14 00:55:44;;;;;;;8.18;6.88;;;10.40;98.30;;;;;;5037055;28;20136;-58
2021/10/14 00:58:11;;;;;;;7.20;6.07;;;10.50;98.20;;;;;;5020029;28;20081;-59
2021/10/14 01:00:38;;;;;;;8.50;6.22;;;10.60;98.20;;;;;;5022291;28;20133;-58
2021/10/14 01:03:04;;;;;;;6.22;5.60;;;10.60;98.30;;;;;;5020687;28;20184;-59
2021/10/14 01:05:31;;;;;;;7.75;5.45;;;10.60;98.30;;;;;;5022224;28;20049;-59
2021/10/14 01:07:58;;;;;;;9.13;5.50;;;10.70;98.20;;;;;;5022475;28;20140;-59
2021/10/14 01:10:25;;;;;;;6.85;5.43;;;10.70;98.20;;;;;;5021003;28;20053;-58
2021/10/14 01:12:52;;;;;;;7.38;5.20;;;10.80;98.20;;;;;;5019821;28;20292;-58
2021/10/14 01:15:25;;;;;;;10.00;5.88;;;10.80;98.40;;;;;;5020900;28;20077;-59
2021/10/14 01:17:54;;;;;;;7.65;5.55;;;10.80;98.30;;;;;;5021025;28;20132;-58
2021/10/14 01:20:21;;;;;;;8.25;6.03;;;10.90;98.20;;;;;;5021123;28;20041;-58
2021/10/14 01:22:47;;;;;;;8.48;6.47;;;10.90;98.20;;;;;;5020826;28;20140;-59
2021/10/14 01:25:14;;;;;;;9.18;6.43;;;10.90;98.20;;;;;;5021834;28;20123;-59
2021/10/14 01:27:41;;;;;;;7.93;5.70;;;10.90;98.30;;;;;;5021080;28;20095;-58
2021/10/14 01:30:08;;;;;;;7.78;6.40;;;10.90;98.30;;;;;;5019755;28;20128;-59
2021/10/14 01:32:35;;;;;;;9.20;6.72;;;11.00;98.50;;;;;;5020268;28;20128;-59
2021/10/14 01:35:04;;;;;;;9.15;6.18;;;11.00;98.50;;;;;;5025024;28;20598;-59
2021/10/14 01:37:31;;;;;;;7.55;6.35;;;11.00;98.50;;;;;;5024466;28;20126;-59
2021/10/14 01:39:58;;;;;;;8.43;6.63;;;11.10;98.50;;;;;;5025456;28;20358;-62
2021/10/14 01:42:25;;;;;;;8.43;6.03;;;11.10;98.50;;;;;;5023953;28;20099;-58
2021/10/14 01:44:52;;;;;;;10.52;6.03;;;11.20;98.60;;;;;;5025243;28;20611;-58
2021/10/14 01:47:19;;;;;;;8.10;5.97;;;11.10;98.50;;;;;;5024706;28;20124;-58
2021/10/14 01:49:45;;;;;;;7.88;6.50;;;11.20;98.40;;;;;;5025062;28;20057;-58
2021/10/14 01:52:12;;;;;;;9.45;7.20;;;11.20;98.40;;;;;;5025041;28;20133;-58
2021/10/14 01:54:39;;;;;;;8.10;6.25;;;11.20;98.50;;;;;;5025569;28;20068;-58
2021/10/14 01:57:05;;;;;;;9.95;6.60;;;11.30;98.60;;;;;;5025088;28;20156;-58
2021/10/14 01:59:32;;;;;;;10.52;6.53;;;11.30;98.60;;;;;;5024868;28;20223;-57
2021/10/14 02:01:59;;;;;;;9.55;6.53;;;11.30;98.50;;;;;;5023459;28;20129;-58
2021/10/14 02:04:26;;;;;;;8.23;6.82;;;11.30;98.60;;;;;;5024645;28;20656;-58
2021/10/14 02:06:53;;;;;;;8.40;5.97;;;11.30;98.60;;;;;;5024936;28;20085;-59
2021/10/14 02:09:19;;;;;;;8.93;6.80;;;11.40;98.70;;;;;;5024722;28;20077;-58
2021/10/14 02:11:46;;;;;;;8.32;6.35;;;11.40;98.70;;;;;;5024304;28;20055;-59
2021/10/14 02:14:13;;;;;;;10.52;6.47;;;11.50;98.70;;;;;;5024572;28;20061;-59
2021/10/14 02:16:40;;;;;;;8.80;7.03;;;11.50;98.80;;;;;;5023575;28;20128;-58
2021/10/14 02:19:06;;;;;;;7.32;5.82;;;11.50;98.70;;;;;;5024988;28;20454;-59
2021/10/14 02:21:33;;;;;;;9.10;6.15;;;11.60;98.70;;;;;;5023540;28;20056;-60
2021/10/14 02:24:00;;;;;;;7.72;5.68;;;11.60;98.70;;;;;;5024634;28;20136;-59
2021/10/14 02:26:26;;;;;;;9.02;5.88;;;11.60;98.60;;;;;;5023340;28;20129;-59
2021/10/14 02:28:53;;;;;;;11.82;7.05;;;11.60;98.70;;;;;;5038676;28;20045;-59
2021/10/14 02:31:20;;;;;;;6.53;5.60;;;11.60;98.70;;;;;;5024200;28;20045;-59
2021/10/14 02:33:47;;;;;;;9.02;5.93;;;11.60;98.50;;;;;;5023361;28;20049;-58
2021/10/14 02:36:14;;;;;;;8.95;6.72;;;11.70;98.50;;;;;;5023952;28;20084;-59
2021/10/14 02:38:40;;;;;;;10.23;7.03;;;11.70;98.60;;;;;;5023896;28;20152;-59
2021/10/14 02:41:07;;;;;;;10.32;6.85;;;11.70;98.80;;;;;;5036197;28;20382;-59
2021/10/14 02:43:34;;;;;;;8.25;6.13;;;11.70;98.50;;;;;;5028932;28;20513;-59
2021/10/14 02:46:00;;;;;;;6.97;6.28;;;11.70;98.50;;;;;;5023282;28;20129;-59
2021/10/14 02:48:27;;;;;;;8.23;6.95;;;11.70;98.60;;;;;;5023669;28;20131;-58
2021/10/14 02:50:54;;;;;;;7.90;6.22;;;11.70;98.70;;;;;;5023993;28;20560;-58
2021/10/14 02:53:21;;;;;;;7.72;6.40;;;11.70;98.80;;;;;;5023952;28;20156;-58
2021/10/14 02:55:47;;;;;;;8.85;6.88;;;11.70;98.80;;;;;;5025458;28;20457;-58
2021/10/14 02:58:14;;;;;;;10.40;6.53;;;11.70;98.80;;;;;;5023275;28;20145;-58
2021/10/14 03:00:41;;;;;;;11.18;7.22;;;11.70;98.90;;;;;;5024559;28;20636;-58
2021/10/14 03:03:08;;;;;;;9.10;6.82;;;11.70;98.80;;;;;;5022218;28;20482;-58
2021/10/14 03:05:35;;;;;;;9.10;6.88;;;11.70;98.80;;;;;;5024389;28;20137;-58
2021/10/14 03:08:01;;;;;;;9.63;6.15;;;11.80;98.80;;;;;;5023943;28;20083;-58
2021/10/14 03:10:28;;;;;;;8.60;6.68;;;11.70;98.70;;;;;;5024210;28;20137;-58
2021/10/14 03:12:55;;;;;;;7.57;6.35;;;11.80;98.90;;;;;;5024381;28;20080;-58
2021/10/14 03:15:22;;;;;;;9.73;6.90;;;11.80;98.80;;;;;;5023865;28;20103;-59
2021/10/14 03:17:48;;;;;;;8.13;6.50;;;11.80;98.80;;;;;;5023203;28;20073;-59
2021/10/14 03:20:15;;;;;;;8.20;6.00;;;11.80;98.70;;;;;;5024068;28;20100;-59
2021/10/14 03:22:42;;;;;;;8.93;7.00;;;11.80;98.70;;;;;;5022613;28;20081;-59
2021/10/14 03:25:08;;;;;;;10.93;7.10;;;11.90;98.80;;;;;;5024624;28;20140;-59
2021/10/14 03:27:35;;;;;;;9.55;6.40;;;11.90;98.80;;;;;;5022668;28;20084;-59
2021/10/14 03:30:02;;;;;;;7.22;6.43;;;11.90;98.70;;;;;;5023473;28;20093;-59
2021/10/14 03:32:29;;;;;;;9.88;8.75;;;11.90;98.90;;;;;;5023721;28;20076;-59
2021/10/14 03:34:56;;;;;;;10.18;8.77;;;12.00;99.50;;;;;;5027437;28;20493;-58
2021/10/14 03:37:23;;;;;;;9.30;7.28;;;12.00;99.40;;;;;;5028221;28;20305;-58
2021/10/14 03:39:50;;;;;;;8.65;6.82;;;12.10;98.80;;;;;;5028021;28;20046;-58
2021/10/14 03:42:17;;;;;;;9.38;6.22;;;12.10;98.80;;;;;;5027646;28;20092;-58
2021/10/14 03:44:43;;;;;;;8.40;7.35;;;12.10;98.70;;;;;;5027189;28;20473;-59
2021/10/14 03:47:10;;;;;;;11.13;8.55;;;12.10;98.70;;;;;;5028967;28;20168;-59
2021/10/14 03:49:37;;;;;;;10.35;7.28;;;12.10;98.80;;;;;;5029808;28;20080;-59
2021/10/14 03:52:04;;;;;;;9.02;7.30;;;12.10;98.70;;;;;;5029589;28;20132;-59
2021/10/14 03:54:30;;;;;;;8.20;7.28;;;12.10;98.80;;;;;;5030062;28;20120;-58
2021/10/14 03:56:57;;;;;;;10.25;8.30;;;12.20;98.80;;;;;;5029169;28;20046;-58
2021/10/14 03:59:24;;;;;;;10.65;7.88;;;12.20;98.70;;;;;;5029066;28;20444;-58
2021/10/14 04:01:50;;;;;;;9.13;7.53;;;12.20;98.70;;;;;;5028977;28;20045;-58
2021/10/14 04:04:21;;;;;;;10.13;7.57;;;12.20;98.70;;;;;;5029525;28;20061;-59
2021/10/14 04:06:48;;;;;;;9.65;7.68;;;12.20;98.80;;;;;;5029076;28;20093;-58
2021/10/14 04:09:15;;;;;;;8.43;7.15;;;12.20;98.80;;;;;;5029902;28;20088;-59
2021/10/14 04:11:41;;;;;;;8.68;6.97;;;12.20;98.80;;;;;;5029181;28;20516;-58
2021/10/14 04:14:08;;;;;;;12.75;8.00;;;12.20;98.80;;;;;;5028601;28;20137;-58
2021/10/14 04:16:35;;;;;;;11.88;8.32;;;12.20;98.90;;;;;;5028322;28;20130;-58
2021/10/14 04:19:02;;;;;;;9.18;7.53;;;12.20;98.90;;;;;;5028712;28;20096;-58
2021/10/14 04:21:28;;;;;;;8.73;7.60;;;12.20;98.90;;;;;;5029620;28;20580;-59
2021/10/14 04:23:56;;;;;;;10.73;8.77;;;12.20;99.00;;;;;;5029276;28;20485;-59
2021/10/14 04:26:23;;;;;;;8.93;7.35;;;12.20;98.90;;;;;;5028990;28;20111;-58
2021/10/14 04:28:50;;;;;;;12.40;8.65;;;12.20;99.00;;;;;;5027622;28;20049;-59
2021/10/14 04:31:16;;;;;;;9.68;8.43;;;12.20;99.00;;;;;;5030775;28;20085;-58
2021/10/14 04:33:43;;;;;;;10.63;8.13;;;12.20;99.00;;;;;;5026318;28;20049;-59
2021/10/14 04:36:10;;;;;;;8.93;7.93;;;12.20;98.90;;;;;;5025641;28;20081;-59
2021/10/14 04:38:37;;;;;;;10.02;8.32;;;12.20;98.90;;;;;;5027433;28;20084;-59
2021/10/14 04:41:03;;;;;;;14.32;8.43;;;12.20;99.10;;;;;;5027455;28;20096;-59
2021/10/14 04:43:30;;;;;;;11.30;8.30;;;12.20;99.00;;;;;;5041442;28;20057;-59
2021/10/14 04:45:57;;;;;;;10.48;7.95;;;12.20;99.10;;;;;;5026319;28;20128;-59
2021/10/14 04:48:24;;;;;;;10.25;8.20;;;12.20;99.00;;;;;;5017500;28;20096;-59
2021/10/14 04:50:50;;;;;;;10.10;8.55;;;12.20;99.10;;;;;;5024539;28;20132;-59
2021/10/14 04:53:17;;;;;;;11.25;8.13;;;12.20;99.10;;;;;;5024203;28;20195;-59
2021/10/14 04:55:44;;;;;;;11.43;7.63;;;12.30;99.10;;;;;;5024270;28;20379;-59
2021/10/14 04:58:10;;;;;;;10.73;8.13;;;12.30;99.10;;;;;;5022437;28;20103;-59
2021/10/14 05:00:37;;;;;;;10.80;8.50;;;12.30;99.00;;;;;;5023621;28;20132;-59
2021/10/14 05:03:04;;;;;;;10.48;7.90;;;12.30;99.00;;;;;;5023768;28;20132;-59
2021/10/14 05:05:36;;;;;;;11.45;8.25;;;12.30;99.20;;;;;;5023563;28;20049;-59
2021/10/14 05:08:03;;;;;;;11.88;8.23;;;12.30;99.20;;;;;;5023017;28;20049;-59
2021/10/14 05:10:33;;;;;;;18.42;11.65;;;12.30;99.20;;;;;;5022606;28;20083;-59
2021/10/14 05:12:59;;;;;;;12.55;10.43;;;12.30;99.20;;;;;;5022341;28;20567;-59
2021/10/14 05:15:26;;;;;;;13.63;11.57;;;12.30;99.20;;;;;;5021891;28;20142;-59
2021/10/14 05:17:53;;;;;;;13.25;9.93;;;12.30;99.30;;;;;;5021296;28;20096;-59
2021/10/14 05:20:20;;;;;;;13.10;10.02;;;12.30;99.20;;;;;;5022821;28;20129;-59
2021/10/14 05:22:47;;;;;;;9.48;8.48;;;12.30;99.30;;;;;;5023042;28;20065;-59
2021/10/14 05:25:13;;;;;;;12.98;9.52;;;12.30;99.50;;;;;;5022613;28;20143;-59
2021/10/14 05:27:40;;;;;;;11.13;8.73;;;12.30;99.20;;;;;;5021923;28;20128;-59
2021/10/14 05:30:07;;;;;;;10.95;8.65;;;12.30;99.10;;;;;;5022049;28;20173;-59
2021/10/14 05:32:34;;;;;;;9.73;7.32;;;12.30;99.30;;;;;;5021453;28;20152;-59
2021/10/14 05:35:01;;;;;;;11.07;8.20;;;12.30;99.10;;;;;;5020782;28;20068;-59
2021/10/14 05:37:28;;;;;;;14.20;7.85;;;12.20;99.20;;;;;;5020587;28;20540;-59
2021/10/14 05:39:56;;;;;;;12.88;9.50;;;12.20;99.30;;;;;;5022048;28;20196;-60
2021/10/14 05:42:22;;;;;;;14.57;9.93;;;12.30;99.50;;;;;;5022003;28;20568;-59
2021/10/14 05:44:49;;;;;;;15.60;12.02;;;12.30;99.40;;;;;;5022100;28;20240;-59
2021/10/14 05:47:16;;;;;;;12.43;9.65;;;12.30;99.20;;;;;;5021538;28;20076;-59
2021/10/14 05:49:42;;;;;;;8.80;7.63;;;12.30;99.30;;;;;;5023150;28;20080;-59
2021/10/14 05:52:09;;;;;;;16.35;12.65;;;12.30;99.40;;;;;;5022240;28;20603;-59
2021/10/14 05:54:37;;;;;;;20.40;16.08;;;12.30;99.30;;;;;;5022328;28;20168;-59
2021/10/14 05:57:03;;;;;;;14.23;10.05;;;12.20;99.20;;;;;;5022293;28;20072;-59
2021/10/14 05:59:30;;;;;;;10.30;7.85;;;12.30;99.20;;;;;;5021915;28;20507;-59
2021/10/14 06:01:57;;;;;;;9.93;7.82;;;12.20;99.20;;;;;;5019748;28;20136;-60
2021/10/14 06:04:24;;;;;;;9.48;8.27;;;12.20;99.70;;;;;;5020293;28;20055;-59
2021/10/14 06:06:51;;;;;;;9.70;8.15;;;12.20;99.40;;;;;;5021391;28;20137;-59
2021/10/14 06:09:18;;;;;;;9.00;7.47;;;12.20;99.10;;;;;;5022630;28;20073;-60
2021/10/14 06:11:45;;;;;;;12.32;9.02;;;12.10;99.00;;;;;;5022410;28;20561;-60
2021/10/14 06:14:11;;;;;;;10.32;8.93;;;12.10;99.00;;;;;;5021852;28;20528;-59
2021/10/14 06:16:38;;;;;;;12.05;9.25;;;12.00;99.30;;;;;;5018605;28;20583;-60
2021/10/14 06:19:05;;;;;;;13.30;9.88;;;12.00;99.20;;;;;;5021891;28;20184;-60
2021/10/14 06:21:32;;;;;;;11.15;9.70;;;11.90;98.90;;;;;;5020993;28;20597;-59
2021/10/14 06:23:58;;;;;;;9.48;7.90;;;11.80;98.80;;;;;;5021048;28;20045;-60
2021/10/14 06:26:25;;;;;;;12.20;8.68;;;11.70;98.90;;;;;;5021259;28;20713;-60
2021/10/14 06:28:52;;;;;;;11.32;9.75;;;11.70;99.50;;;;;;5021466;28;20081;-60
2021/10/14 06:31:19;;;;;;;12.73;8.35;;;11.60;99.50;;;;;;5022675;28;20088;-60
2021/10/14 06:33:46;;;;;;;10.18;7.70;;;11.60;99.10;;;;;;5021174;28;20275;-59
2021/10/14 06:36:12;;;;;;;9.52;7.38;;;11.50;98.80;;;;;;5022360;28;20053;-60
2021/10/14 06:38:39;;;;;;;8.57;7.00;;;11.40;98.70;;;;;;5022136;28;20077;-59
2021/10/14 06:41:06;;;;;;;9.57;7.07;;;11.30;98.70;;;;;;5022233;28;20527;-60
2021/10/14 06:43:34;;;;;;;10.48;8.13;;;11.30;99.20;;;;;;5021523;28;20667;-60
2021/10/14 06:46:00;;;;;;;11.10;8.85;;;11.20;99.30;;;;;;5036801;28;20433;-60
2021/10/14 06:48:27;;;;;;;10.70;8.20;;;11.20;99.10;;;;;;5021244;28;20057;-59
2021/10/14 06:50:54;;;;;;;10.85;9.00;;;11.10;99.10;;;;;;5022678;28;20571;-60
2021/10/14 06:53:21;;;;;;;10.48;7.95;;;11.10;99.40;;;;;;5021995;28;20132;-59
2021/10/14 06:55:49;;;;;;;14.82;8.93;;;11.20;99.70;;;;;;5021883;28;20136;-60
2021/10/14 06:58:16;;;;;;;9.73;6.90;;;11.10;99.30;;;;;;5020354;28;20049;-60
2021/10/14 07:00:43;;;;;;;9.82;7.20;;;11.10;99.10;;;;;;5020543;28;20508;-60
2021/10/14 07:03:10;;;;;;;8.15;6.68;;;11.10;99.10;;;;;;5021131;28;20203;-59
2021/10/14 07:05:37;;;;;;;11.20;7.32;;;11.10;99.10;;;;;;5020482;28;20057;-59
2021/10/14 07:08:04;;;;;;;9.82;6.93;;;11.10;99.20;;;;;;5023203;28;20077;-60
2021/10/14 07:10:30;;;;;;;11.93;8.02;;;11.20;99.50;;;;;;5028080;28;20147;-60
2021/10/14 07:13:04;;;;;;;11.10;7.43;;;11.20;99.40;;;;;;5027596;28;20120;-59
2021/10/14 07:15:31;;;;;;;8.73;7.15;;;11.30;99.40;;;;;;5027489;28;20060;-60
2021/10/14 07:17:59;;;;;;;8.73;6.85;;;11.30;99.50;;;;;;5025777;28;20084;-60
2021/10/14 07:20:26;;;;;;;8.18;7.22;;;11.40;99.40;;;;;;5025620;28;20072;-59
2021/10/14 07:22:52;;;;;;;12.43;8.20;;;11.50;99.90;;;;;;5017294;28;20160;-60
2021/10/14 07:25:19;;;;;;;10.90;7.32;;;11.60;99.90;;;;;;5028390;28;20136;-60
2021/10/14 07:27:46;;;;;;;8.20;7.30;;;11.60;99.90;;;;;;5026042;28;20136;-59
2021/10/14 07:30:13;;;;;;;8.73;7.35;;;11.70;99.90;;;;;;5026899;28;20102;-59
2021/10/14 07:32:40;;;;;;;10.30;7.80;;;11.80;99.90;;;;;;5027136;28;20565;-60
2021/10/14 07:35:07;;;;;;;10.43;7.30;;;11.80;99.90;;;;;;5042118;28;20062;-60
2021/10/14 07:37:34;;;;;;;9.75;7.00;;;11.90;99.90;;;;;;5026756;28;20069;-60
2021/10/14 07:40:00;;;;;;;9.32;6.90;;;12.00;99.90;;;;;;5027979;28;20204;-60
2021/10/14 07:42:32;;;;;;;9.65;6.90;;;12.10;99.90;;;;;;5027412;28;20268;-58
2021/10/14 07:44:59;;;;;;;8.70;6.30;;;12.10;99.90;;;;;;5026597;28;20386;-59
2021/10/14 07:47:26;;;;;;;8.70;6.10;;;12.20;99.90;;;;;;5026566;28;20103;-59
2021/10/14 07:49:53;;;;;;;7.38;6.40;;;12.30;99.90;;;;;;5027994;28;20132;-59
2021/10/14 07:52:19;;;;;;;9.48;6.60;;;12.40;99.80;;;;;;5025571;28;20130;-59
2021/10/14 07:54:46;;;;;;;9.48;6.38;;;12.40;99.90;;;;;;5020722;28;20077;-59
2021/10/14 07:57:15;;;;;;;10.00;6.68;;;12.60;99.80;;;;;;5026236;28;20050;-59
2021/10/14 07:59:42;;;;;;;7.30;5.90;;;12.60;99.70;;;;;;5030953;28;20072;-59
2021/10/14 08:02:11;;;;;;;8.35;4.97;;;12.70;99.50;;;;;;5027070;28;20049;-59
2021/10/14 08:04:38;;;;;;;8.77;5.28;;;12.80;99.20;;;;;;5027371;28;20164;-59
2021/10/14 08:07:04;;;;;;;9.57;5.57;;;12.80;99.20;;;;;;5026434;28;20056;-60
2021/10/14 08:09:34;;;;;;;6.40;5.40;;;12.90;99.10;;;;;;5027548;28;20485;-59
2021/10/14 08:12:00;;;;;;;7.38;4.78;;;12.90;99.20;;;;;;5027045;28;20057;-58
2021/10/14 08:14:27;;;;;;;5.55;3.75;;;13.00;98.50;;;;;;5027347;28;20045;-59
2021/10/14 08:16:54;;;;;;;5.78;3.55;;;13.10;98.30;;;;;;5026514;28;20623;-60
2021/10/14 08:19:21;;;;;;;4.60;2.83;;;13.20;97.60;;;;;;5025694;28;20161;-59
2021/10/14 08:21:48;;;;;;;5.13;3.03;;;13.30;97.70;;;;;;5024334;28;20132;-59
2021/10/14 08:24:14;;;;;;;6.90;2.90;;;13.40;97.30;;;;;;5024351;28;20407;-59
2021/10/14 08:26:41;;;;;;;6.13;2.75;;;13.50;97.30;;;;;;5023154;28;20160;-59
2021/10/14 08:29:08;;;;;;;6.50;2.72;;;13.50;96.80;;;;;;5022922;28;20085;-59
2021/10/14 08:31:34;;;;;;;3.92;2.42;;;13.60;96.40;;;;;;5021838;28;20140;-59
2021/10/14 08:34:02;;;;;;;5.90;2.42;;;13.60;96.40;;;;;;5024355;28;20054;-59
2021/10/14 08:36:29;;;;;;;5.82;2.58;;;13.70;96.30;;;;;;5023333;28;20060;-60
2021/10/14 08:38:56;;;;;;;3.80;2.40;;;13.70;95.90;;;;;;5023590;28;20050;-59
2021/10/14 08:41:22;;;;;;;4.22;2.42;;;13.80;95.80;;;;;;5022331;28;20060;-59
2021/10/14 08:43:49;;;;;;;4.20;2.25;;;13.90;95.70;;;;;;5023062;28;20091;-59
2021/10/14 08:46:16;;;;;;;6.68;2.15;;;14.00;95.30;;;;;;5006561;28;20145;-59
2021/10/14 08:48:43;;;;;;;6.97;2.22;;;14.10;95.10;;;;;;5022759;28;20190;-60
2021/10/14 08:51:10;;;;;;;3.85;2.22;;;14.20;94.90;;;;;;5023152;28;20152;-60
2021/10/14 08:53:37;;;;;;;3.47;2.53;;;14.30;94.80;;;;;;5023969;28;20053;-60
2021/10/14 08:56:05;;;;;;;8.50;2.80;;;14.40;94.70;;;;;;5027005;28;20064;-60
2021/10/14 08:58:31;;;;;;;3.60;2.20;;;14.40;94.20;;;;;;5026595;28;20061;-59
2021/10/14 09:01:20;;;;;;;5.78;3.00;;;14.60;93.60;;;;;;5026723;28;20049;-59
2021/10/14 09:03:52;;;;;;;3.08;1.88;;;14.70;93.40;;;;;;5023214;28;20077;-59
2021/10/14 09:06:19;;;;;;;3.65;2.30;;;14.80;93.80;;;;;;5022248;28;20160;-59
2021/10/14 09:08:48;;;;;;;5.32;2.00;;;14.90;93.20;;;;;;5024326;28;20073;-59
2021/10/14 09:11:16;;;;;;;3.58;1.95;;;14.90;93.00;;;;;;5025726;28;20521;-60
2021/10/14 09:13:54;;;;;;;4.32;2.03;;;14.90;92.70;;;;;;5013777;28;20197;-58
2021/10/14 09:16:22;;;;;;;10.45;3.00;;;14.90;92.40;;;;;;5003451;28;20125;-59
2021/10/14 09:18:49;;;;;;;3.45;1.80;;;15.00;92.70;;;;;;5019347;28;20455;-59
2021/10/14 09:21:23;;;;;;;4.15;1.63;;;15.10;92.70;;;;;;5020191;28;20095;-58
2021/10/14 09:23:51;;;;;;;5.55;2.33;;;15.10;91.00;;;;;;5018545;28;20235;-59
2021/10/14 09:26:30;;;;;;;3.72;2.10;;;15.10;91.90;;;;;;5016880;28;20499;-58
2021/10/14 09:29:08;;;;;;;3.65;1.63;;;15.20;91.60;;;;;;5017835;28;20143;-59
2021/10/14 09:31:52;;;;;;;3.30;1.88;;;15.20;91.70;;;;;;5014415;28;20132;-58
2021/10/14 09:34:26;;;;;;;4.38;2.03;;;15.30;91.40;;;;;;5017142;28;20900;-59
2021/10/14 09:36:53;;;;;;;3.65;1.40;;;15.30;91.40;;;;;;5015579;28;20053;-59
2021/10/14 09:39:20;;;;;;;3.60;1.35;;;15.20;90.70;;;;;;5006644;28;20053;-59
2021/10/14 09:41:47;;;;;;;3.60;1.38;;;15.20;91.10;;;;;;5018430;28;20141;-59
2021/10/14 09:44:49;;;;;;;3.85;1.95;;;15.40;91.80;;;;;;5023144;28;20045;-59
2021/10/14 09:47:15;;;;;;;4.55;1.90;;;15.50;91.20;;;;;;5016629;28;20057;-59
2021/10/14 09:49:42;;;;;;;3.60;1.92;;;15.60;91.70;;;;;;5018507;28;20371;-59
2021/10/14 09:52:09;;;;;;;2.90;1.70;;;15.60;91.50;;;;;;5018908;28;20096;-59
2021/10/14 09:54:36;;;;;;;3.30;2.00;;;15.80;91.30;;;;;;5017641;28;20128;-59
2021/10/14 09:57:02;;;;;;;4.82;2.17;;;15.80;91.10;;;;;;5018864;28;20080;-59
2021/10/14 09:59:29;;;;;;;3.22;1.88;;;15.90;90.80;;;;;;5018017;28;20099;-59
2021/10/14 10:01:57;;;;;;;3.05;1.83;;;15.90;90.70;;;;;;5017925;28;20136;-59
2021/10/14 10:04:25;;;;;;;3.40;1.92;;;16.00;90.60;;;;;;5022936;28;20559;-59
2021/10/14 10:06:55;;;;;;;3.40;1.95;;;16.10;88.80;;;;;;5008837;28;20075;-59
2021/10/14 10:09:31;;;;;;;3.22;1.90;;;16.20;86.90;;;;;;4987538;28;20714;-59
2021/10/14 10:11:59;;;;;;;3.40;1.40;;;16.20;84.90;;;;;;5014159;28;20093;-59
2021/10/14 10:14:26;;;;;;;4.47;1.95;;;16.20;85.50;;;;;;5015703;28;20103;-58
2021/10/14 10:17:02;;;;;;;3.10;1.73;;;16.30;85.50;;;;;;5015240;28;20061;-58
2021/10/14 10:19:42;;;;;;;2.65;1.60;;;16.40;85.20;;;;;;5015731;28;20453;-57
2021/10/14 10:22:10;;;;;;;4.50;1.90;;;16.40;84.70;;;;;;5017514;28;20085;-58
2021/10/14 10:24:38;;;;;;;4.03;1.50;;;16.40;85.60;;;;;;5033048;28;20037;-58
2021/10/14 10:27:06;;;;;;;4.82;1.70;;;16.50;84.30;;;;;;5016865;28;20069;-59
2021/10/14 10:29:34;;;;;;;2.70;1.50;;;16.70;84.80;;;;;;4998009;28;20038;-59
2021/10/14 10:32:04;;;;;;;2.42;1.17;;;16.80;83.00;;;;;;5016293;28;20089;-58
2021/10/14 10:37:20;;;;;;;2.05;1.27;;;16.90;83.60;;;;;;5017156;28;20077;-58
2021/10/14 10:39:57;;;;;;;3.53;1.40;;;16.90;81.90;;;;;;5015976;28;20076;-57
2021/10/14 10:42:46;;;;;;;3.15;1.15;;;17.00;81.00;;;;;;5014408;28;20485;-59
2021/10/14 10:45:18;;;;;;;4.40;1.23;;;17.10;80.60;;;;;;5003482;28;20129;-59
2021/10/14 10:47:45;;;;;;;3.13;1.38;;;17.10;78.80;;;;;;5016945;28;20140;-59
2021/10/14 10:50:17;;;;;;;4.55;1.50;;;17.10;78.20;;;;;;5017425;28;20143;-59
2021/10/14 10:52:45;;;;;;;4.63;1.20;;;17.20;80.10;;;;;;5016834;28;20140;-59
2021/10/14 10:55:21;;;;;;;2.08;1.00;;;17.30;77.70;;;;;;5017361;28;20499;-59
2021/10/14 10:57:48;;;;;;;2.90;1.20;;;17.30;76.00;;;;;;5016505;28;20049;-59
2021/10/14 11:00:17;;;;;;;2.90;1.00;;;17.40;76.00;;;;;;5014899;28;20881;-59
2021/10/14 11:02:44;;;;;;;2.78;1.08;;;17.50;76.00;;;;;;5015426;28;20136;-59
2021/10/14 11:05:11;;;;;;;2.42;0.80;;;17.70;75.90;;;;;;5016179;28;20057;-59
2021/10/14 11:07:39;;;;;;;3.45;1.90;;;17.80;75.70;;;;;;5016581;28;20550;-59
2021/10/14 11:10:06;;;;;;;2.25;0.98;;;17.80;73.80;;;;;;5020407;28;20046;-60
2021/10/14 11:12:33;;;;;;;1.50;0.73;;;17.70;73.90;;;;;;5014255;28;20042;-59
2021/10/14 11:15:13;;;;;;;3.38;1.23;;;17.80;73.80;;;;;;5014899;28;20568;-59
2021/10/14 11:17:40;;;;;;;2.65;1.33;;;18.00;71.20;;;;;;5014587;28;20425;-59
2021/10/14 11:20:07;;;;;;;2.55;1.15;;;18.10;72.30;;;;;;5014372;28;20049;-59
2021/10/14 11:22:34;;;;;;;2.58;1.10;;;18.20;71.80;;;;;;5017541;28;20151;-59
2021/10/14 11:25:03;;;;;;;1.83;0.85;;;18.10;72.50;;;;;;5017358;28;20891;-59
2021/10/14 11:27:30;;;;;;;2.00;1.00;;;18.20;74.60;;;;;;4997074;28;20053;-59
2021/10/14 11:30:16;;;;;;;5.47;0.80;;;18.20;70.80;;;;;;5016551;28;20128;-59
2021/10/14 11:33:09;;;;;;;;;;;18.10;70.50;;;;;;5016655;28;20048;-57
2021/10/14 11:36:03;;;;;;;4.78;1.20;;;18.30;70.60;;;;;;5016948;28;19983;-58
2021/10/14 11:38:30;;;;;;;2.05;1.10;;;18.50;71.10;;;;;;5014879;28;20128;-59
2021/10/14 11:40:57;;;;;;;2.20;1.35;;;18.70;71.20;;;;;;5016501;28;20072;-58
2021/10/14 11:43:29;;;;;;;4.70;1.58;;;18.80;70.10;;;;;;5020371;28;20480;-58
2021/10/14 11:45:56;;;;;;;3.70;1.47;;;18.90;68.70;;;;;;5017569;28;20163;-59
2021/10/14 11:48:34;;;;;;;3.05;1.20;;;19.00;69.20;;;;;;5009288;28;20157;-58
2021/10/14 11:51:10;;;;;;;2.92;1.27;;;19.20;67.90;;;;;;5017036;28;20140;-58
2021/10/14 11:53:38;;;;;;;1.55;1.17;;;19.20;67.30;;;;;;5016654;28;20060;-59
2021/10/14 11:56:10;;;;;;;4.63;1.20;;;19.20;69.20;;;;;;5021363;28;20064;-58
2021/10/14 11:58:37;;;;;;;3.83;1.17;;;18.90;67.70;;;;;;5018190;28;20133;-58
2021/10/14 12:01:11;;;;;;;3.70;1.63;;;18.90;69.90;;;;;;5021024;28;20108;-58
2021/10/14 12:03:38;;;;;;;3.25;1.15;;;18.90;69.00;;;;;;5007965;28;20081;-59
2021/10/14 12:06:06;;;;;;;3.15;1.55;;;18.90;71.30;;;;;;5018126;28;20135;-58
2021/10/14 12:08:33;;;;;;;2.78;1.45;;;18.90;69.50;;;;;;5000936;28;20056;-59
2021/10/14 12:11:00;;;;;;;14.35;3.05;;;19.20;70.60;;;;;;4999483;28;20103;-59
2021/10/14 12:13:29;;;;;;;3.72;1.30;;;19.00;68.40;;;;;;5018758;28;20068;-59
2021/10/14 12:16:16;;;;;;;4.53;1.80;;;19.10;70.40;;;;;;5020483;28;20077;-59
2021/10/14 12:18:42;;;;;;;2.88;1.40;;;18.80;67.40;;;;;;5004212;28;20072;-59
2021/10/14 12:21:35;;;;;;;8.95;1.90;;;18.70;69.90;;;;;;5020339;28;20473;-59
2021/10/14 12:24:02;;;;;;;10.38;2.95;;;18.50;69.60;;;;;;5020757;28;20084;-59
2021/10/14 12:26:34;;;;;;;5.03;1.60;;;18.50;70.20;;;;;;5019973;28;20441;-58
2021/10/14 12:29:19;;;;;;;3.67;1.30;;;19.00;69.30;;;;;;5020294;28;20090;-59
2021/10/14 12:31:46;;;;;;;2.72;1.23;;;19.70;66.50;;;;;;5019684;28;20799;-59
2021/10/14 12:34:13;;;;;;;1.77;1.13;;;20.20;68.80;;;;;;5019193;28;20133;-59
2021/10/14 12:36:44;;;;;;;2.80;1.20;;;20.10;66.90;;;;;;5029252;28;20651;-59
2021/10/14 12:39:21;;;;;;;2.17;1.25;;;19.90;65.90;;;;;;5017160;28;20120;-59
2021/10/14 12:41:55;;;;;;;1.90;1.38;;;20.20;64.70;;;;;;5018014;28;20156;-59
2021/10/14 12:44:46;;;;;;;2.70;1.23;;;20.50;64.00;;;;;;5019448;28;20084;-59
2021/10/14 12:47:49;;;;;;;5.57;1.73;;;20.10;66.30;;;;;;5017676;28;20192;-59
2021/10/14 12:53:13;;;;;;;3.97;1.45;;;19.60;66.00;;;;;;5018060;28;20672;-59
2021/10/14 12:55:57;;;;;;;5.28;1.25;;;19.20;66.20;;;;;;5019089;28;20515;-59